Maersk Stralsund — D5OI6 — position and weather

sailwx.info

Track history (hours):
 
Tides and Currents Weather Stations Pressure Air Temp Water Temp Dewpoint Dewpoint Depression Visibility Wind Speed Wind Dir Waves Ship Positions

Maersk Stralsund

Last reported at 2017-Sep-30 01:58 UTC. Time now 2017-Dec-16 01:26 UTC.
Position N 26°55' W 079°51'.
Warning: this ship's position is months out of date.

; draft 10.2 m.

Type: Ship (hazmat cat A). MMSI: 636091220.

Date/timePositionNaut miles runAvg speedWind from/ knotsBaromVisibWave heightAir tempDewpointWater temp
2017-Sep-30 01:58N 26°55' W 079°51'612.4
2017-Sep-30 01:30N 27°01' W 079°51'24513.4
2017-Sep-29 07:15N 31°06' W 079°59'915.3
2017-Sep-29 06:38N 31°16' W 079°59'815.8
2017-Sep-29 06:05N 31°24' W 079°56'115.9
2017-Sep-29 06:00N 31°25' W 079°56'815.8
2017-Sep-29 05:30N 31°33' W 079°54'915.9
2017-Sep-29 04:56N 31°42' W 079°51'715.9
2017-Sep-29 04:31N 31°48' W 079°49'816.0
2017-Sep-29 04:01N 31°56' W 079°47'816.1
2017-Sep-29 03:31N 32°04' W 079°44'816.3
2017-Sep-29 03:00N 32°12' W 079°42'816.4
2017-Sep-29 02:30N 32°20' W 079°40'816.5
2017-Sep-29 02:01N 32°28' W 079°37'816.9
2017-Sep-29 01:31N 32°36' W 079°35'712.1
2017-Sep-29 00:57N 32°40' W 079°42'817.7
2017-Sep-29 00:31N 32°44' W 079°50'610.9
2017-Sep-28 23:55N 32°49' W 079°55'1 0.1
2017-Sep-28 13:27N 32°50' W 079°54'0 0.0
2017-Sep-28 12:58N 32°50' W 079°54'0 0.0
2017-Sep-28 12:02N 32°50' W 079°54'0 0.0
2017-Sep-28 12:00N 32°50' W 079°54'0 0.1
2017-Sep-28 11:30N 32°50' W 079°54'2 4.6
2017-Sep-28 11:01N 32°48' W 079°55'5 9.9
2017-Sep-28 10:30N 32°44' W 079°51'613.0
2017-Sep-28 10:01N 32°41' W 079°44'4 8.1
2017-Sep-28 09:31N 32°39' W 079°40'4 7.4
2017-Sep-28 09:00N 32°38' W 079°36'4 8.0
2017-Sep-28 08:31N 32°38' W 079°31'1 1.1
2017-Sep-28 08:01N 32°38' W 079°30'0 0.0
2017-Sep-28 07:31N 32°38' W 079°30'0 0.1
2017-Sep-28 07:01N 32°38' W 079°30'0 0.0
2017-Sep-28 06:31N 32°38' W 079°30'0 0.0
2017-Sep-28 06:00N 32°38' W 079°30'0 0.0
2017-Sep-28 05:30N 32°38' W 079°30'0 0.1
2017-Sep-28 05:01N 32°38' W 079°30'0 0.2
2017-Sep-28 04:31N 32°38' W 079°31'0 0.2
2017-Sep-28 04:01N 32°38' W 079°31'311 6.9
2017-Sep-26 06:55N 36°54' W 075°54'615.5
2017-Sep-26 06:30N 36°57' W 076°01'815.4
2017-Sep-26 06:00N 36°59' W 076°10'815.6
2017-Sep-26 05:29N 36°58' W 076°20'4 8.8
2017-Sep-26 05:01N 36°54' W 076°20'2 3.6
2017-Sep-26 04:31N 36°52' W 076°21'0 0.0
2017-Sep-26 04:01N 36°52' W 076°21'0 0.0
2017-Sep-26 03:31N 36°52' W 076°21'0 0.0
2017-Sep-26 03:01N 36°52' W 076°21'0 0.0
2017-Sep-26 02:31N 36°52' W 076°21'0 0.0
2017-Sep-26 02:01N 36°52' W 076°21'0 0.0
2017-Sep-26 01:31N 36°52' W 076°21'0 0.0
2017-Sep-26 01:01N 36°52' W 076°21'0 0.0
2017-Sep-26 00:31N 36°52' W 076°21'0 0.0
2017-Sep-26 00:01N 36°52' W 076°21'0 0.0
2017-Sep-25 23:31N 36°52' W 076°21'0 0.0
2017-Sep-25 23:01N 36°52' W 076°21'0 0.0
2017-Sep-25 22:31N 36°52' W 076°21'0 0.0
2017-Sep-25 22:01N 36°52' W 076°21'0 0.0
2017-Sep-25 21:31N 36°52' W 076°21'0 0.0
2017-Sep-25 20:45N 36°52' W 076°21'0 0.0
2017-Sep-25 20:31N 36°52' W 076°21'0 0.0
2017-Sep-25 20:01N 36°52' W 076°21'0 0.0
2017-Sep-25 19:31N 36°52' W 076°21'0 0.0
2017-Sep-25 13:36N 36°52' W 076°21'0 0.0
2017-Sep-25 13:31N 36°52' W 076°21'0 0.0
2017-Sep-25 13:01N 36°52' W 076°21'0 0.0
2017-Sep-25 12:31N 36°52' W 076°21'0 0.0
2017-Sep-25 12:01N 36°52' W 076°21'0 0.0
2017-Sep-25 11:31N 36°52' W 076°21'0 0.0
2017-Sep-25 11:01N 36°52' W 076°21'0 0.0
2017-Sep-25 10:31N 36°52' W 076°21'0 0.0
2017-Sep-25 10:00N 36°52' W 076°21'0 0.0
2017-Sep-25 09:31N 36°52' W 076°21'0 0.0
2017-Sep-25 09:01N 36°52' W 076°21'0 0.0
2017-Sep-25 08:31N 36°52' W 076°21'0 0.0
2017-Sep-25 08:01N 36°52' W 076°21'0 0.0
2017-Sep-25 07:31N 36°52' W 076°21'0 0.0
2017-Sep-25 07:01N 36°52' W 076°21'0 0.0
2017-Sep-25 06:31N 36°52' W 076°21'0 0.0
2017-Sep-25 06:00N 36°52' W 076°21'0 0.0
2017-Sep-25 05:31N 36°52' W 076°21'0 0.0
2017-Sep-25 05:01N 36°52' W 076°21'0 0.0
2017-Sep-25 04:30N 36°52' W 076°21'0 0.0
2017-Sep-25 04:01N 36°52' W 076°21'0 0.0
2017-Sep-25 03:31N 36°52' W 076°21'0 0.0
2017-Sep-25 03:01N 36°52' W 076°21'0 0.0
2017-Sep-25 02:31N 36°52' W 076°21'0 0.0
2017-Sep-25 02:01N 36°52' W 076°21'0 0.0
2017-Sep-25 01:31N 36°52' W 076°21'0 0.0
2017-Sep-25 01:01N 36°52' W 076°21'0 0.0
2017-Sep-25 00:31N 36°52' W 076°21'0 0.0
2017-Sep-25 00:01N 36°52' W 076°21'0 0.0
2017-Sep-24 23:31N 36°52' W 076°21'0 0.0
2017-Sep-24 23:01N 36°52' W 076°21'0 0.0
2017-Sep-24 22:31N 36°52' W 076°21'0 0.0
2017-Sep-24 22:01N 36°52' W 076°21'0 0.0
2017-Sep-24 21:31N 36°52' W 076°21'0 0.0
2017-Sep-24 21:01N 36°52' W 076°21'0 0.9
2017-Sep-24 20:31N 36°53' W 076°20'3 5.4
2017-Sep-24 20:01N 36°55' W 076°20'4 8.5
2017-Sep-24 19:30N 36°59' W 076°19'713.5
2017-Sep-24 19:00N 36°59' W 076°10'816.8
2017-Sep-24 18:30N 36°57' W 076°00'611.9
2017-Sep-24 18:01N 36°54' W 075°54'713.4
2017-Sep-24 17:30N 36°50' W 075°47'2111.6
2017-Sep-24 15:40N 36°40' W 075°23'211.0
2017-Sep-24 15:30N 36°39' W 075°22'511.0
2017-Sep-24 15:00N 36°35' W 075°17'1311.0
2017-Sep-24 13:48N 36°27' W 075°04'310.8
2017-Sep-24 13:31N 36°24' W 075°01'612.3
2017-Sep-24 13:00N 36°19' W 074°57'5711.5
2017-Sep-24 08:04N 35°23' W 074°56'10012.1
2017-Sep-23 23:48N 34°02' W 076°08'3014.2
2017-Sep-23 21:43N 33°43' W 076°35'248 5.7
2017-Sep-22 02:01N 32°08' W 081°09'0 0.0
2017-Sep-22 01:30N 32°08' W 081°09'0 0.0
2017-Sep-22 01:01N 32°08' W 081°09'0 0.0
2017-Sep-22 00:31N 32°08' W 081°09'0 0.0
2017-Sep-22 00:01N 32°08' W 081°09'0 0.0
2017-Sep-21 23:31N 32°08' W 081°09'0 0.0
2017-Sep-21 23:01N 32°08' W 081°09'0 0.0
2017-Sep-21 22:31N 32°08' W 081°09'0 0.0
2017-Sep-21 22:01N 32°08' W 081°09'0 0.0
2017-Sep-21 21:30N 32°08' W 081°09'0 0.0
2017-Sep-21 21:01N 32°08' W 081°09'0 0.0
2017-Sep-21 20:31N 32°08' W 081°09'0 0.0
2017-Sep-21 20:01N 32°08' W 081°09'0 0.0
2017-Sep-21 19:31N 32°08' W 081°09'0 0.0
2017-Sep-21 19:01N 32°08' W 081°09'0 0.0
2017-Sep-21 18:31N 32°08' W 081°09'0 0.0
2017-Sep-21 18:01N 32°08' W 081°09'0 0.0
2017-Sep-21 17:30N 32°08' W 081°09'0 0.0
2017-Sep-21 17:01N 32°08' W 081°09'0 0.0
2017-Sep-21 16:31N 32°08' W 081°09'0 0.0
2017-Sep-21 16:01N 32°08' W 081°09'0 0.0
2017-Sep-21 15:31N 32°08' W 081°09'0 1.0
2017-Sep-21 15:01N 32°08' W 081°08'2 3.7
2017-Sep-21 14:31N 32°06' W 081°07'3 5.6
2017-Sep-21 14:01N 32°05' W 081°05'4 7.6
2017-Sep-21 13:31N 32°06' W 081°00'612.5
2017-Sep-21 13:01N 32°02' W 080°54'612.2
2017-Sep-21 12:31N 32°00' W 080°48'612.4
2017-Sep-21 12:00N 31°57' W 080°41'611.6
2017-Sep-21 11:31N 31°56' W 080°35'4 7.1
2017-Sep-21 11:00N 31°57' W 080°31'3 6.1
2017-Sep-21 10:31N 31°59' W 080°29'2 2.2
2017-Sep-21 09:42N 32°01' W 080°28'0 0.0
2017-Sep-21 09:31N 32°01' W 080°28'0 0.0
2017-Sep-21 09:01N 32°01' W 080°28'0 0.3
2017-Sep-21 08:31N 32°01' W 080°28'0 0.3
2017-Sep-21 08:01N 32°01' W 080°28'0 0.1
2017-Sep-21 07:31N 32°01' W 080°28'0 0.1
2017-Sep-21 07:01N 32°01' W 080°28'0 0.1
2017-Sep-21 06:31N 32°01' W 080°28'0 0.0
2017-Sep-21 06:00N 32°01' W 080°28'0 0.0
2017-Sep-21 05:30N 32°01' W 080°28'0 0.0
2017-Sep-21 05:01N 32°01' W 080°28'0 0.0
2017-Sep-21 04:30N 32°01' W 080°28'0 0.0
2017-Sep-21 04:00N 32°01' W 080°28'0 0.0
2017-Sep-21 03:31N 32°01' W 080°28'0 0.1
2017-Sep-21 02:59N 32°01' W 080°28'0 0.1
2017-Sep-21 02:31N 32°01' W 080°28'0 0.1
2017-Sep-21 01:59N 32°01' W 080°28'0 0.1
2017-Sep-21 01:30N 32°01' W 080°28'0 0.1
2017-Sep-21 01:01N 32°01' W 080°28'0 0.1
2017-Sep-21 00:30N 32°01' W 080°28'0 0.0
2017-Sep-20 23:59N 32°01' W 080°28'0 0.0
2017-Sep-20 23:27N 32°01' W 080°28'0 0.0
2017-Sep-20 23:00N 32°01' W 080°28'0 0.1
2017-Sep-20 22:31N 32°01' W 080°28'0 0.0
2017-Sep-20 21:58N 32°01' W 080°28'0 0.0
2017-Sep-20 21:31N 32°01' W 080°28'0 0.0
2017-Sep-20 21:00N 32°01' W 080°28'0 0.0
2017-Sep-20 20:31N 32°01' W 080°28'0 0.2
2017-Sep-20 20:00N 32°01' W 080°28'0 0.3
2017-Sep-20 19:30N 32°01' W 080°28'0 0.1
2017-Sep-20 19:01N 32°01' W 080°28'0 0.0
2017-Sep-20 18:31N 32°01' W 080°28'0 0.0
2017-Sep-20 18:01N 32°01' W 080°28'0 0.0
2017-Sep-20 17:31N 32°01' W 080°28'0 0.0
2017-Sep-20 17:01N 32°01' W 080°28'0 0.0
2017-Sep-20 16:30N 32°01' W 080°28'0 0.0
2017-Sep-20 16:01N 32°01' W 080°28'0 0.0
2017-Sep-20 15:31N 32°01' W 080°28'0 0.0
2017-Sep-20 15:01N 32°01' W 080°28'0 0.0
2017-Sep-20 13:54N 32°01' W 080°28'0 0.1
2017-Sep-20 13:30N 32°01' W 080°28'0 0.1
2017-Sep-20 13:01N 32°01' W 080°28'0 0.1
2017-Sep-20 12:31N 32°01' W 080°28'0 0.1
2017-Sep-20 11:50N 32°01' W 080°28'0 0.0
2017-Sep-20 11:30N 32°01' W 080°28'0 0.1
2017-Sep-20 11:00N 32°01' W 080°28'0 0.0
2017-Sep-20 10:23N 32°01' W 080°28'0 0.0
2017-Sep-20 09:29N 32°01' W 080°28'0 0.0
2017-Sep-20 09:01N 32°01' W 080°28'0 0.0
2017-Sep-20 08:23N 32°01' W 080°28'0 0.1
2017-Sep-20 07:53N 32°01' W 080°28'0 0.0
2017-Sep-20 07:31N 32°01' W 080°28'0 0.1
2017-Sep-20 06:54N 32°01' W 080°28'0 0.0
2017-Sep-20 06:27N 32°01' W 080°28'0 0.1
2017-Sep-20 06:00N 32°01' W 080°28'0 0.1
2017-Sep-20 05:31N 32°01' W 080°28'0 0.1
2017-Sep-20 05:01N 32°01' W 080°28'0 0.1
2017-Sep-20 04:30N 32°01' W 080°28'0 0.0
2017-Sep-20 04:01N 32°01' W 080°28'0 0.0
2017-Sep-20 03:30N 32°01' W 080°28'0 0.0
2017-Sep-20 03:01N 32°01' W 080°28'0 0.0
2017-Sep-20 02:31N 32°01' W 080°28'0 0.1
2017-Sep-20 02:01N 32°01' W 080°28'  
Track history (hours):
 
Tides and Currents Weather Stations Pressure Air Temp Water Temp Dewpoint Dewpoint Depression Visibility Wind Speed Wind Dir Waves Ship Positions

Maersk Stralsund

Last reported at 2017-Sep-30 01:58 UTC. Time now 2017-Dec-16 01:26 UTC.
Position N 26°55' W 079°51'.
Warning: this ship's position is months out of date.

; draft 10.2 m.

Type: Ship (hazmat cat A). MMSI: 636091220.

Date/timePositionNaut miles runAvg speedWind from/ knotsBaromVisibWave heightAir tempDewpointWater temp
2017-Sep-30 01:58N 26°55' W 079°51'612.4
2017-Sep-30 01:30N 27°01' W 079°51'24513.4
2017-Sep-29 07:15N 31°06' W 079°59'915.3
2017-Sep-29 06:38N 31°16' W 079°59'815.8
2017-Sep-29 06:05N 31°24' W 079°56'115.9
2017-Sep-29 06:00N 31°25' W 079°56'815.8
2017-Sep-29 05:30N 31°33' W 079°54'915.9
2017-Sep-29 04:56N 31°42' W 079°51'715.9
2017-Sep-29 04:31N 31°48' W 079°49'816.0
2017-Sep-29 04:01N 31°56' W 079°47'816.1
2017-Sep-29 03:31N 32°04' W 079°44'816.3
2017-Sep-29 03:00N 32°12' W 079°42'816.4
2017-Sep-29 02:30N 32°20' W 079°40'816.5
2017-Sep-29 02:01N 32°28' W 079°37'816.9
2017-Sep-29 01:31N 32°36' W 079°35'712.1
2017-Sep-29 00:57N 32°40' W 079°42'817.7
2017-Sep-29 00:31N 32°44' W 079°50'610.9
2017-Sep-28 23:55N 32°49' W 079°55'1 0.1
2017-Sep-28 13:27N 32°50' W 079°54'0 0.0
2017-Sep-28 12:58N 32°50' W 079°54'0 0.0
2017-Sep-28 12:02N 32°50' W 079°54'0 0.0
2017-Sep-28 12:00N 32°50' W 079°54'0 0.1
2017-Sep-28 11:30N 32°50' W 079°54'2 4.6
2017-Sep-28 11:01N 32°48' W 079°55'5 9.9
2017-Sep-28 10:30N 32°44' W 079°51'613.0
2017-Sep-28 10:01N 32°41' W 079°44'4 8.1
2017-Sep-28 09:31N 32°39' W 079°40'4 7.4
2017-Sep-28 09:00N 32°38' W 079°36'4 8.0
2017-Sep-28 08:31N 32°38' W 079°31'1 1.1
2017-Sep-28 08:01N 32°38' W 079°30'0 0.0
2017-Sep-28 07:31N 32°38' W 079°30'0 0.1
2017-Sep-28 07:01N 32°38' W 079°30'0 0.0
2017-Sep-28 06:31N 32°38' W 079°30'0 0.0
2017-Sep-28 06:00N 32°38' W 079°30'0 0.0
2017-Sep-28 05:30N 32°38' W 079°30'0 0.1
2017-Sep-28 05:01N 32°38' W 079°30'0 0.2
2017-Sep-28 04:31N 32°38' W 079°31'0 0.2
2017-Sep-28 04:01N 32°38' W 079°31'311 6.9
2017-Sep-26 06:55N 36°54' W 075°54'615.5
2017-Sep-26 06:30N 36°57' W 076°01'815.4
2017-Sep-26 06:00N 36°59' W 076°10'815.6
2017-Sep-26 05:29N 36°58' W 076°20'4 8.8
2017-Sep-26 05:01N 36°54' W 076°20'2 3.6
2017-Sep-26 04:31N 36°52' W 076°21'0 0.0
2017-Sep-26 04:01N 36°52' W 076°21'0 0.0
2017-Sep-26 03:31N 36°52' W 076°21'0 0.0
2017-Sep-26 03:01N 36°52' W 076°21'0 0.0
2017-Sep-26 02:31N 36°52' W 076°21'0 0.0
2017-Sep-26 02:01N 36°52' W 076°21'0 0.0
2017-Sep-26 01:31N 36°52' W 076°21'0 0.0
2017-Sep-26 01:01N 36°52' W 076°21'0 0.0
2017-Sep-26 00:31N 36°52' W 076°21'0 0.0
2017-Sep-26 00:01N 36°52' W 076°21'0 0.0
2017-Sep-25 23:31N 36°52' W 076°21'0 0.0
2017-Sep-25 23:01N 36°52' W 076°21'0 0.0
2017-Sep-25 22:31N 36°52' W 076°21'0 0.0
2017-Sep-25 22:01N 36°52' W 076°21'0 0.0
2017-Sep-25 21:31N 36°52' W 076°21'0 0.0
2017-Sep-25 20:45N 36°52' W 076°21'0 0.0
2017-Sep-25 20:31N 36°52' W 076°21'0 0.0
2017-Sep-25 20:01N 36°52' W 076°21'0 0.0
2017-Sep-25 19:31N 36°52' W 076°21'0 0.0
2017-Sep-25 13:36N 36°52' W 076°21'0 0.0
2017-Sep-25 13:31N 36°52' W 076°21'0 0.0
2017-Sep-25 13:01N 36°52' W 076°21'0 0.0
2017-Sep-25 12:31N 36°52' W 076°21'0 0.0
2017-Sep-25 12:01N 36°52' W 076°21'0 0.0
2017-Sep-25 11:31N 36°52' W 076°21'0 0.0
2017-Sep-25 11:01N 36°52' W 076°21'0 0.0
2017-Sep-25 10:31N 36°52' W 076°21'0 0.0
2017-Sep-25 10:00N 36°52' W 076°21'0 0.0
2017-Sep-25 09:31N 36°52' W 076°21'0 0.0
2017-Sep-25 09:01N 36°52' W 076°21'0 0.0
2017-Sep-25 08:31N 36°52' W 076°21'0 0.0
2017-Sep-25 08:01N 36°52' W 076°21'0 0.0
2017-Sep-25 07:31N 36°52' W 076°21'0 0.0
2017-Sep-25 07:01N 36°52' W 076°21'0 0.0
2017-Sep-25 06:31N 36°52' W 076°21'0 0.0
2017-Sep-25 06:00N 36°52' W 076°21'0 0.0
2017-Sep-25 05:31N 36°52' W 076°21'0 0.0
2017-Sep-25 05:01N 36°52' W 076°21'0 0.0
2017-Sep-25 04:30N 36°52' W 076°21'0 0.0
2017-Sep-25 04:01N 36°52' W 076°21'0 0.0
2017-Sep-25 03:31N 36°52' W 076°21'0 0.0
2017-Sep-25 03:01N 36°52' W 076°21'0 0.0
2017-Sep-25 02:31N 36°52' W 076°21'0 0.0
2017-Sep-25 02:01N 36°52' W 076°21'0 0.0
2017-Sep-25 01:31N 36°52' W 076°21'0 0.0
2017-Sep-25 01:01N 36°52' W 076°21'0 0.0
2017-Sep-25 00:31N 36°52' W 076°21'0 0.0
2017-Sep-25 00:01N 36°52' W 076°21'0 0.0
2017-Sep-24 23:31N 36°52' W 076°21'0 0.0
2017-Sep-24 23:01N 36°52' W 076°21'0 0.0
2017-Sep-24 22:31N 36°52' W 076°21'0 0.0
2017-Sep-24 22:01N 36°52' W 076°21'0 0.0
2017-Sep-24 21:31N 36°52' W 076°21'0 0.0
2017-Sep-24 21:01N 36°52' W 076°21'0 0.9
2017-Sep-24 20:31N 36°53' W 076°20'3 5.4
2017-Sep-24 20:01N 36°55' W 076°20'4 8.5
2017-Sep-24 19:30N 36°59' W 076°19'713.5
2017-Sep-24 19:00N 36°59' W 076°10'816.8
2017-Sep-24 18:30N 36°57' W 076°00'611.9
2017-Sep-24 18:01N 36°54' W 075°54'713.4
2017-Sep-24 17:30N 36°50' W 075°47'2111.6
2017-Sep-24 15:40N 36°40' W 075°23'211.0
2017-Sep-24 15:30N 36°39' W 075°22'511.0
2017-Sep-24 15:00N 36°35' W 075°17'1311.0
2017-Sep-24 13:48N 36°27' W 075°04'310.8
2017-Sep-24 13:31N 36°24' W 075°01'612.3
2017-Sep-24 13:00N 36°19' W 074°57'5711.5
2017-Sep-24 08:04N 35°23' W 074°56'10012.1
2017-Sep-23 23:48N 34°02' W 076°08'3014.2
2017-Sep-23 21:43N 33°43' W 076°35'248 5.7
2017-Sep-22 02:01N 32°08' W 081°09'0 0.0
2017-Sep-22 01:30N 32°08' W 081°09'0 0.0
2017-Sep-22 01:01N 32°08' W 081°09'0 0.0
2017-Sep-22 00:31N 32°08' W 081°09'0 0.0
2017-Sep-22 00:01N 32°08' W 081°09'0 0.0
2017-Sep-21 23:31N 32°08' W 081°09'0 0.0
2017-Sep-21 23:01N 32°08' W 081°09'0 0.0
2017-Sep-21 22:31N 32°08' W 081°09'0 0.0
2017-Sep-21 22:01N 32°08' W 081°09'0 0.0
2017-Sep-21 21:30N 32°08' W 081°09'0 0.0
2017-Sep-21 21:01N 32°08' W 081°09'0 0.0
2017-Sep-21 20:31N 32°08' W 081°09'0 0.0
2017-Sep-21 20:01N 32°08' W 081°09'0 0.0
2017-Sep-21 19:31N 32°08' W 081°09'0 0.0
2017-Sep-21 19:01N 32°08' W 081°09'0 0.0
2017-Sep-21 18:31N 32°08' W 081°09'0 0.0
2017-Sep-21 18:01N 32°08' W 081°09'0 0.0
2017-Sep-21 17:30N 32°08' W 081°09'0 0.0
2017-Sep-21 17:01N 32°08' W 081°09'0 0.0
2017-Sep-21 16:31N 32°08' W 081°09'0 0.0
2017-Sep-21 16:01N 32°08' W 081°09'0 0.0
2017-Sep-21 15:31N 32°08' W 081°09'0 1.0
2017-Sep-21 15:01N 32°08' W 081°08'2 3.7
2017-Sep-21 14:31N 32°06' W 081°07'3 5.6
2017-Sep-21 14:01N 32°05' W 081°05'4 7.6
2017-Sep-21 13:31N 32°06' W 081°00'612.5
2017-Sep-21 13:01N 32°02' W 080°54'612.2
2017-Sep-21 12:31N 32°00' W 080°48'612.4
2017-Sep-21 12:00N 31°57' W 080°41'611.6
2017-Sep-21 11:31N 31°56' W 080°35'4 7.1
2017-Sep-21 11:00N 31°57' W 080°31'3 6.1
2017-Sep-21 10:31N 31°59' W 080°29'2 2.2
2017-Sep-21 09:42N 32°01' W 080°28'0 0.0
2017-Sep-21 09:31N 32°01' W 080°28'0 0.0
2017-Sep-21 09:01N 32°01' W 080°28'0 0.3
2017-Sep-21 08:31N 32°01' W 080°28'0 0.3
2017-Sep-21 08:01N 32°01' W 080°28'0 0.1
2017-Sep-21 07:31N 32°01' W 080°28'0 0.1
2017-Sep-21 07:01N 32°01' W 080°28'0 0.1
2017-Sep-21 06:31N 32°01' W 080°28'0 0.0
2017-Sep-21 06:00N 32°01' W 080°28'0 0.0
2017-Sep-21 05:30N 32°01' W 080°28'0 0.0
2017-Sep-21 05:01N 32°01' W 080°28'0 0.0
2017-Sep-21 04:30N 32°01' W 080°28'0 0.0
2017-Sep-21 04:00N 32°01' W 080°28'0 0.0
2017-Sep-21 03:31N 32°01' W 080°28'0 0.1
2017-Sep-21 02:59N 32°01' W 080°28'0 0.1
2017-Sep-21 02:31N 32°01' W 080°28'0 0.1
2017-Sep-21 01:59N 32°01' W 080°28'0 0.1
2017-Sep-21 01:30N 32°01' W 080°28'0 0.1
2017-Sep-21 01:01N 32°01' W 080°28'0 0.1
2017-Sep-21 00:30N 32°01' W 080°28'0 0.0
2017-Sep-20 23:59N 32°01' W 080°28'0 0.0
2017-Sep-20 23:27N 32°01' W 080°28'0 0.0
2017-Sep-20 23:00N 32°01' W 080°28'0 0.1
2017-Sep-20 22:31N 32°01' W 080°28'0 0.0
2017-Sep-20 21:58N 32°01' W 080°28'0 0.0
2017-Sep-20 21:31N 32°01' W 080°28'0 0.0
2017-Sep-20 21:00N 32°01' W 080°28'0 0.0
2017-Sep-20 20:31N 32°01' W 080°28'0 0.2
2017-Sep-20 20:00N 32°01' W 080°28'0 0.3
2017-Sep-20 19:30N 32°01' W 080°28'0 0.1
2017-Sep-20 19:01N 32°01' W 080°28'0 0.0
2017-Sep-20 18:31N 32°01' W 080°28'0 0.0
2017-Sep-20 18:01N 32°01' W 080°28'0 0.0
2017-Sep-20 17:31N 32°01' W 080°28'0 0.0
2017-Sep-20 17:01N 32°01' W 080°28'0 0.0
2017-Sep-20 16:30N 32°01' W 080°28'0 0.0
2017-Sep-20 16:01N 32°01' W 080°28'0 0.0
2017-Sep-20 15:31N 32°01' W 080°28'0 0.0
2017-Sep-20 15:01N 32°01' W 080°28'0 0.0
2017-Sep-20 13:54N 32°01' W 080°28'0 0.1
2017-Sep-20 13:30N 32°01' W 080°28'0 0.1
2017-Sep-20 13:01N 32°01' W 080°28'0 0.1
2017-Sep-20 12:31N 32°01' W 080°28'0 0.1
2017-Sep-20 11:50N 32°01' W 080°28'0 0.0
2017-Sep-20 11:30N 32°01' W 080°28'0 0.1
2017-Sep-20 11:00N 32°01' W 080°28'0 0.0
2017-Sep-20 10:23N 32°01' W 080°28'0 0.0
2017-Sep-20 09:29N 32°01' W 080°28'0 0.0
2017-Sep-20 09:01N 32°01' W 080°28'0 0.0
2017-Sep-20 08:23N 32°01' W 080°28'0 0.1
2017-Sep-20 07:53N 32°01' W 080°28'0 0.0
2017-Sep-20 07:31N 32°01' W 080°28'0 0.1
2017-Sep-20 06:54N 32°01' W 080°28'0 0.0
2017-Sep-20 06:27N 32°01' W 080°28'0 0.1
2017-Sep-20 06:00N 32°01' W 080°28'0 0.1
2017-Sep-20 05:31N 32°01' W 080°28'0 0.1
2017-Sep-20 05:01N 32°01' W 080°28'0 0.1
2017-Sep-20 04:30N 32°01' W 080°28'0 0.0
2017-Sep-20 04:01N 32°01' W 080°28'0 0.0
2017-Sep-20 03:30N 32°01' W 080°28'0 0.0
2017-Sep-20 03:01N 32°01' W 080°28'0 0.0
2017-Sep-20 02:31N 32°01' W 080°28'0 0.1
2017-Sep-20 02:01N 32°01' W 080°28'  

Dump ship's entire track history